Time;durP1;ratioP1;P1;durP2;ratioP2;P2;SDS_P1;SDS_P2;PMS_P1;PMS_P2;Temp;Humidity;BMP_temperature;BMP_pressure;BME280_temperature;BME280_humidity;BME280_pressure;Samples;Min_cycle;Max_cycle;Signal;HPM_P1;HPM_P2
2022/07/16 00:02:35;;;;;;;0.50;0.40;;;;;;;22.26;100.00;95430.81;5133992;27;20438;-57
2022/07/16 00:05:05;;;;;;;0.50;0.40;;;;;;;22.18;100.00;95426.31;5133657;27;20513;-55
2022/07/16 00:07:34;;;;;;;0.60;0.37;;;;;;;22.25;100.00;95425.75;5134071;27;20422;-54
2022/07/16 00:10:05;;;;;;;0.40;0.30;;;;;;;22.17;100.00;95424.75;5133567;27;20442;-55
2022/07/16 00:12:33;;;;;;;0.40;0.20;;;;;;;22.08;100.00;95432.97;5133484;27;20612;-54
2022/07/16 00:15:03;;;;;;;0.60;0.40;;;;;;;22.08;100.00;95434.88;5133268;27;21047;-54
2022/07/16 00:17:31;;;;;;;0.40;0.30;;;;;;;22.05;100.00;95430.16;5133434;27;20525;-57
2022/07/16 00:19:58;;;;;;;0.40;0.20;;;;;;;22.09;100.00;95433.75;5133386;27;20996;-56
2022/07/16 00:22:27;;;;;;;0.50;0.40;;;;;;;21.91;100.00;95429.69;5133346;27;20861;-56
2022/07/16 00:24:55;;;;;;;0.40;0.30;;;;;;;21.93;100.00;95432.88;5133400;27;20431;-55
2022/07/16 00:27:25;;;;;;;0.40;0.20;;;;;;;21.88;100.00;95439.25;5133412;27;20450;-55
2022/07/16 00:29:53;;;;;;;0.40;0.30;;;;;;;21.84;100.00;95437.53;5132659;27;20518;-56
2022/07/16 00:32:22;;;;;;;1.83;0.30;;;;;;;21.81;100.00;95433.59;5132965;27;20522;-56
2022/07/16 00:34:50;;;;;;;0.57;0.30;;;;;;;21.80;100.00;95436.66;5133280;27;20433;-55
2022/07/16 00:37:19;;;;;;;0.50;0.40;;;;;;;21.75;100.00;95439.56;5133030;27;20491;-56
2022/07/16 00:39:47;;;;;;;0.40;0.30;;;;;;;21.72;100.00;95430.25;5133213;27;20410;-55
2022/07/16 00:42:16;;;;;;;0.40;0.20;;;;;;;21.69;100.00;95428.22;5133073;27;20491;-56
2022/07/16 00:44:45;;;;;;;0.40;0.20;;;;;;;21.69;100.00;95430.13;5133270;27;20497;-55
2022/07/16 00:47:14;;;;;;;0.40;0.30;;;;;;;21.50;100.00;95422.59;5132634;27;20423;-55
2022/07/16 00:49:42;;;;;;;0.50;0.40;;;;;;;21.48;100.00;95436.38;5133137;27;20430;-55
2022/07/16 00:52:11;;;;;;;0.83;0.83;;;;;;;21.52;100.00;95428.44;5133331;27;20415;-55
2022/07/16 00:54:40;;;;;;;0.40;0.30;;;;;;;21.39;100.00;95426.84;5133073;27;20470;-55
2022/07/16 00:57:09;;;;;;;0.60;0.60;;;;;;;21.28;100.00;95437.25;5133143;27;20768;-55
2022/07/16 00:59:37;;;;;;;0.40;0.30;;;;;;;21.40;100.00;95431.88;5133096;27;20528;-55
2022/07/16 01:02:07;;;;;;;0.60;0.30;;;;;;;21.39;100.00;95430.31;5132799;28;20469;-55
2022/07/16 01:04:36;;;;;;;0.40;0.30;;;;;;;21.27;100.00;95435.69;5132711;28;20522;-55
2022/07/16 01:07:07;;;;;;;0.40;0.30;;;;;;;21.23;100.00;95434.78;5132913;28;20994;-55
2022/07/16 01:09:36;;;;;;;0.40;0.30;;;;;;;21.26;100.00;95426.03;5132507;28;20513;-55
2022/07/16 01:12:05;;;;;;;0.60;0.40;;;;;;;21.30;100.00;95428.84;5132497;28;20871;-55
2022/07/16 01:14:34;;;;;;;0.50;0.30;;;;;;;21.38;100.00;95430.63;5132289;28;20521;-55
2022/07/16 01:17:02;;;;;;;4.50;0.93;;;;;;;21.32;100.00;95432.00;5132558;28;20474;-55
2022/07/16 01:19:32;;;;;;;0.50;0.30;;;;;;;21.11;100.00;95423.16;5132694;28;20502;-56
2022/07/16 01:22:00;;;;;;;1.90;0.70;;;;;;;21.05;100.00;95422.56;5131610;28;20426;-56
2022/07/16 01:24:31;;;;;;;0.50;0.40;;;;;;;21.18;100.00;95421.50;5132005;28;20818;-56
2022/07/16 01:26:59;;;;;;;0.50;0.40;;;;;;;21.21;100.00;95426.22;5132497;28;20518;-56
2022/07/16 01:29:29;;;;;;;0.40;0.30;;;;;;;21.21;100.00;95426.22;5132547;28;20462;-56
2022/07/16 01:31:57;;;;;;;0.40;0.20;;;;;;;20.85;100.00;95364.13;5132801;28;20875;-56
2022/07/16 01:34:26;;;;;;;0.40;0.30;;;;;;;21.16;100.00;95429.13;5132546;28;20972;-56
2022/07/16 01:36:56;;;;;;;0.70;0.50;;;;;;;21.18;100.00;95432.28;5132429;28;20426;-56
2022/07/16 01:39:25;;;;;;;0.50;0.30;;;;;;;21.10;100.00;95427.75;5132671;28;20430;-56
2022/07/16 01:41:56;;;;;;;0.40;0.20;;;;;;;21.15;100.00;95426.78;5132502;28;20932;-56
2022/07/16 01:44:25;;;;;;;0.40;0.20;;;;;;;21.10;100.00;95430.47;5133845;27;20810;-56
2022/07/16 01:46:54;;;;;;;0.40;0.30;;;;;;;20.60;100.00;95357.06;5136195;27;20422;-56
2022/07/16 01:49:23;;;;;;;0.40;0.30;;;;;;;20.09;100.00;95307.94;5136524;27;20509;-56
2022/07/16 01:51:53;;;;;;;0.40;0.23;;;;;;;21.04;100.00;95442.56;5136725;27;20853;-56
2022/07/16 01:54:21;;;;;;;0.70;0.70;;;;;;;19.81;100.00;95437.91;5136065;27;21086;-55
2022/07/16 01:56:49;;;;;;;0.50;0.30;;;;;;;19.94;100.00;95434.97;5135765;27;20486;-55
2022/07/16 01:59:19;;;;;;;0.40;0.23;;;;;;;20.46;100.00;95437.34;5135884;27;20532;-55
2022/07/16 02:01:48;;;;;;;0.80;0.57;;;;;;;20.65;100.00;95434.97;5136169;27;20454;-55
2022/07/16 02:04:16;;;;;;;0.40;0.30;;;;;;;20.80;100.00;95432.47;5136028;27;20991;-55
2022/07/16 02:06:45;;;;;;;0.40;0.30;;;;;;;20.92;100.00;95428.25;5135912;27;20433;-56
2022/07/16 02:09:13;;;;;;;0.50;0.30;;;;;;;20.78;100.00;95428.53;5135988;27;20458;-56
2022/07/16 02:11:41;;;;;;;0.40;0.30;;;;;;;20.56;100.00;95436.97;5135643;27;20555;-56
2022/07/16 02:14:10;;;;;;;0.50;0.33;;;;;;;20.66;100.00;95439.25;5135320;27;20508;-55
2022/07/16 02:16:40;;;;;;;0.50;0.37;;;;;;;20.68;100.00;95439.72;5136085;27;20501;-55
2022/07/16 02:19:08;;;;;;;0.80;0.43;;;;;;;20.66;100.00;95442.75;5135646;27;20943;-55
2022/07/16 02:21:36;;;;;;;0.40;0.20;;;;;;;20.65;100.00;95445.75;5136070;27;20890;-55
2022/07/16 02:24:07;;;;;;;0.43;0.33;;;;;;;20.68;100.00;95450.47;5135600;27;20498;-55
2022/07/16 02:26:35;;;;;;;0.40;0.20;;;;;;;20.58;100.00;95451.66;5135644;27;20517;-55
2022/07/16 02:29:03;;;;;;;0.40;0.20;;;;;;;20.56;100.00;95436.97;5135530;27;20513;-55
2022/07/16 02:31:41;;;;;;;0.40;0.30;;;;;;;20.63;100.00;95453.38;5135098;27;20417;-55
2022/07/16 02:34:10;;;;;;;0.40;0.30;;;;;;;20.16;100.00;95455.44;5134484;27;20505;-55
2022/07/16 02:36:38;;;;;;;0.40;0.30;;;;;;;20.09;100.00;95455.91;5134966;27;20435;-56
2022/07/16 02:39:07;;;;;;;0.40;0.30;;;;;;;20.10;100.00;95429.81;5135476;27;20462;-55
2022/07/16 02:41:35;;;;;;;0.40;0.27;;;;;;;20.39;100.00;95459.41;5135731;27;20415;-55
2022/07/16 02:44:04;;;;;;;0.40;0.37;;;;;;;20.48;100.00;95451.28;5135430;27;20466;-55
2022/07/16 02:46:32;;;;;;;0.50;0.30;;;;;;;20.41;100.00;95461.78;5135343;27;20513;-55
2022/07/16 02:49:02;;;;;;;0.60;0.30;;;;;;;20.42;100.00;95457.97;5135224;27;20464;-55
2022/07/16 02:51:30;;;;;;;0.40;0.23;;;;;;;20.35;100.00;95460.38;5134495;27;20477;-55
2022/07/16 02:53:59;;;;;;;0.50;0.40;;;;;;;20.20;100.00;95462.53;5135116;27;20426;-55
2022/07/16 02:56:27;;;;;;;0.50;0.30;;;;;;;19.97;100.00;95466.59;5134755;27;20464;-55
2022/07/16 02:58:56;;;;;;;0.60;0.30;;;;;;;19.92;100.00;95455.22;5135171;27;20423;-66
2022/07/16 03:01:24;;;;;;;0.50;0.40;;;;;;;19.68;100.00;95461.22;5134400;27;20920;-67
2022/07/16 03:03:53;;;;;;;0.40;0.30;;;;;;;19.87;100.00;95463.47;5134428;27;20425;-68
2022/07/16 03:06:23;;;;;;;0.40;0.30;;;;;;;19.96;100.00;95465.00;5134409;27;20406;-66
2022/07/16 03:08:52;;;;;;;0.40;0.23;;;;;;;19.97;100.00;95463.91;5135057;27;20440;-67
2022/07/16 03:11:20;;;;;;;0.50;0.50;;;;;;;20.17;100.00;95468.53;5135160;27;20427;-66
2022/07/16 03:13:49;;;;;;;4.00;0.80;;;;;;;20.16;100.00;95461.56;5135030;27;20430;-67
2022/07/16 03:16:17;;;;;;;0.40;0.30;;;;;;;20.25;100.00;95475.03;5134515;27;20474;-67
2022/07/16 03:18:46;;;;;;;0.40;0.30;;;;;;;20.19;100.00;95470.91;5134651;27;20419;-66
2022/07/16 03:21:15;;;;;;;0.80;0.30;;;;;;;20.01;100.00;95467.53;5134925;27;20461;-67
2022/07/16 03:23:44;;;;;;;0.50;0.30;;;;;;;20.23;100.00;95463.78;5134599;27;20450;-66
2022/07/16 03:26:13;;;;;;;0.40;0.30;;;;;;;20.29;100.00;95475.94;5134773;27;20434;-63
2022/07/16 03:28:42;;;;;;;0.70;0.40;;;;;;;20.38;100.00;95467.81;5134779;27;20415;-61
2022/07/16 03:31:11;;;;;;;0.40;0.30;;;;;;;20.40;100.00;95465.56;5134375;27;20448;-61
2022/07/16 03:33:39;;;;;;;0.40;0.30;;;;;;;20.32;100.00;95471.81;5134665;27;20514;-61
2022/07/16 03:36:08;;;;;;;0.53;0.30;;;;;;;20.42;100.00;95474.91;5134574;27;20516;-61
2022/07/16 03:41:23;;;;;;;0.50;0.30;;;;;;;20.31;100.00;95481.00;5133955;27;20471;-60
2022/07/16 03:43:51;;;;;;;0.50;0.30;;;;;;;19.95;100.00;95476.09;5133438;27;20495;-61
2022/07/16 03:46:20;;;;;;;0.40;0.30;;;;;;;19.75;100.00;95480.31;5134425;27;20426;-61
2022/07/16 03:48:49;;;;;;;0.50;0.40;;;;;;;19.42;100.00;95490.06;5134241;27;20467;-61
2022/07/16 03:51:18;;;;;;;0.40;0.30;;;;;;;19.56;100.00;95493.34;5134294;27;20414;-60
2022/07/16 03:53:46;;;;;;;0.40;0.30;;;;;;;19.90;100.00;95495.91;5133712;27;20431;-61
2022/07/16 03:56:14;;;;;;;0.40;0.30;;;;;;;19.60;100.00;95488.91;5133846;27;20501;-60
2022/07/16 03:58:44;;;;;;;0.50;0.30;;;;;;;19.34;100.00;95490.84;5133855;27;20426;-61
2022/07/16 04:01:13;;;;;;;0.50;0.40;;;;;;;19.36;100.00;95491.31;5134002;27;20453;-61
2022/07/16 04:03:41;;;;;;;0.40;0.27;;;;;;;19.75;100.00;95488.38;5133695;27;20426;-60
2022/07/16 04:06:10;;;;;;;0.50;0.30;;;;;;;19.46;100.00;95423.78;5133590;27;20411;-60
2022/07/16 04:08:38;;;;;;;0.40;0.30;;;;;;;19.93;100.00;95491.78;5133234;27;20921;-60
2022/07/16 04:11:07;;;;;;;0.47;0.33;;;;;;;20.01;100.00;95497.13;5133819;27;20507;-61
2022/07/16 04:13:38;;;;;;;0.50;0.30;;;;;;;20.11;100.00;95502.13;5133517;27;20534;-60
2022/07/16 04:16:08;;;;;;;0.50;0.33;;;;;;;20.22;100.00;95494.47;5133085;27;20494;-60
2022/07/16 04:18:37;;;;;;;0.40;0.30;;;;;;;20.29;100.00;95496.69;5133784;27;20414;-60
2022/07/16 04:21:07;;;;;;;0.40;0.30;;;;;;;20.41;100.00;95494.09;5132900;27;20418;-60
2022/07/16 04:23:36;;;;;;;0.50;0.30;;;;;;;20.27;100.00;95503.19;5133271;27;20881;-60
2022/07/16 04:26:04;;;;;;;0.40;0.20;;;;;;;20.46;100.00;95501.97;5133284;27;20452;-61
2022/07/16 04:28:33;;;;;;;0.50;0.30;;;;;;;20.53;100.00;95500.34;5133000;27;20470;-60
2022/07/16 04:31:01;;;;;;;0.50;0.30;;;;;;;20.63;100.00;95493.78;5133370;27;20427;-60
2022/07/16 04:33:31;;;;;;;0.50;0.30;;;;;;;20.67;100.00;95492.00;5133297;27;20477;-60
2022/07/16 04:35:59;;;;;;;0.40;0.30;;;;;;;20.78;100.00;95495.88;5133097;27;21031;-60
2022/07/16 04:38:28;;;;;;;0.40;0.23;;;;;;;20.59;100.00;95496.31;5133467;27;20509;-60
2022/07/16 04:40:56;;;;;;;0.43;0.33;;;;;;;20.73;100.00;95506.84;5133055;27;20466;-60
2022/07/16 04:43:25;;;;;;;0.50;0.30;;;;;;;20.82;100.00;95502.19;5133062;27;20473;-60
2022/07/16 04:45:53;;;;;;;0.40;0.20;;;;;;;20.94;100.00;95499.56;5133005;27;20875;-60
2022/07/16 04:48:21;;;;;;;0.40;0.20;;;;;;;20.98;100.00;95491.59;5132988;27;20581;-60
2022/07/16 04:50:51;;;;;;;0.40;0.30;;;;;;;21.11;100.00;95491.34;5132929;27;20792;-61
2022/07/16 04:53:20;;;;;;;0.50;0.40;;;;;;;21.21;100.00;95493.63;5133061;27;20418;-59
2022/07/16 04:55:48;;;;;;;0.40;0.20;;;;;;;21.32;99.58;95488.63;5132829;27;20462;-59
2022/07/16 04:58:16;;;;;;;0.50;0.40;;;;;;;21.47;98.08;95487.97;5132840;27;20495;-59
2022/07/16 05:00:45;;;;;;;0.40;0.30;;;;;;;21.58;95.42;95486.41;5132548;27;20418;-58
2022/07/16 05:03:13;;;;;;;0.43;0.30;;;;;;;21.68;94.16;95487.91;5132845;27;20450;-59
2022/07/16 05:05:47;;;;;;;0.40;0.30;;;;;;;21.75;89.56;95485.44;5133006;28;20419;-58
2022/07/16 05:08:17;;;;;;;0.40;0.20;;;;;;;21.80;95.65;95487.91;5132663;28;20514;-58
2022/07/16 05:10:46;;;;;;;1.03;0.30;;;;;;;21.63;99.41;95488.13;5132711;28;20427;-57
2022/07/16 05:13:14;;;;;;;0.40;0.30;;;;;;;21.80;100.00;95486.03;5132537;28;20491;-58
2022/07/16 05:15:42;;;;;;;0.60;0.60;;;;;;;21.77;98.94;95491.28;5132083;28;20489;-58
2022/07/16 05:18:11;;;;;;;0.60;0.60;;;;;;;21.94;100.00;95491.09;5133661;27;20466;-58
2022/07/16 05:20:39;;;;;;;0.50;0.33;;;;;;;21.89;100.00;95496.72;5137130;27;20856;-58
2022/07/16 05:23:08;;;;;;;0.40;0.30;;;;;;;21.20;100.00;95496.66;5136433;27;20457;-57
2022/07/16 05:25:38;;;;;;;2.27;0.70;;;;;;;20.62;100.00;95502.97;5136748;27;20505;-58
2022/07/16 05:28:06;;;;;;;0.40;0.33;;;;;;;20.70;100.00;95497.53;5136102;27;20426;-58
2022/07/16 05:30:35;;;;;;;0.60;0.60;;;;;;;21.05;100.00;95502.63;5136668;27;20458;-57
2022/07/16 05:33:03;;;;;;;1.17;0.70;;;;;;;20.96;100.00;95505.41;5136581;27;20515;-58
2022/07/16 05:35:32;;;;;;;0.50;0.30;;;;;;;21.30;100.00;95488.94;5136445;27;20992;-57
2022/07/16 05:38:00;;;;;;;0.47;0.33;;;;;;;21.30;100.00;95497.00;5136762;27;20427;-57
2022/07/16 05:40:29;;;;;;;1.00;1.00;;;;;;;21.08;100.00;95507.38;5136118;27;20462;-57
2022/07/16 05:42:58;;;;;;;4.33;2.00;;;;;;;21.01;100.00;95505.19;5136757;27;20430;-57
2022/07/16 05:45:27;;;;;;;0.70;0.70;;;;;;;21.18;100.00;95505.06;5135100;27;20852;-57
2022/07/16 05:47:55;;;;;;;0.90;0.53;;;;;;;22.08;100.00;95495.06;5136308;27;20969;-57
2022/07/16 05:50:24;;;;;;;0.50;0.40;;;;;;;21.66;100.00;95496.31;5136705;27;20419;-57
2022/07/16 05:52:52;;;;;;;0.57;0.33;;;;;;;22.01;100.00;95500.22;5136518;27;20863;-57
2022/07/16 05:55:21;;;;;;;0.50;0.50;;;;;;;22.41;100.00;95496.84;5136376;27;20505;-57
2022/07/16 05:57:49;;;;;;;0.70;0.70;;;;;;;22.74;100.00;95492.09;5136006;27;20462;-56
2022/07/16 06:00:19;;;;;;;0.50;0.40;;;;;;;22.03;100.00;95489.09;5136165;27;20430;-57
2022/07/16 06:02:48;;;;;;;0.50;0.50;;;;;;;22.28;100.00;95496.06;5136246;27;20510;-57
2022/07/16 06:05:16;;;;;;;0.40;0.30;;;;;;;23.13;100.00;95487.78;5136067;27;20430;-56
2022/07/16 06:07:45;;;;;;;0.50;0.40;;;;;;;22.41;96.10;95369.91;5136121;27;20434;-56
2022/07/16 06:10:13;;;;;;;0.53;0.30;;;;;;;23.04;97.85;95498.75;5135524;27;20513;-57
2022/07/16 06:12:41;;;;;;;0.50;0.50;;;;;;;23.32;90.87;95487.94;5135789;27;20530;-57
2022/07/16 06:15:11;;;;;;;0.50;0.50;;;;;;;23.36;91.32;95491.53;5135242;27;20549;-57
2022/07/16 06:17:41;;;;;;;0.67;0.47;;;;;;;23.81;91.81;95491.94;5135157;27;21117;-58
2022/07/16 06:20:11;;;;;;;1.47;0.40;;;;;;;24.42;86.48;95496.91;5135787;27;20446;-58
2022/07/16 06:22:40;;;;;;;1.03;1.03;;;;;;;24.32;83.45;95494.75;5135139;27;20501;-58
2022/07/16 06:25:12;;;;;;;0.50;0.40;;;;;;;24.58;85.18;95489.53;5135543;27;20437;-58
2022/07/16 06:27:44;;;;;;;0.50;0.50;;;;;;;24.44;79.09;95446.66;5135746;27;20510;-58
2022/07/16 06:30:13;;;;;;;3.20;0.60;;;;;;;25.15;74.18;95462.50;5135060;27;20461;-58
2022/07/16 06:32:44;;;;;;;0.40;0.40;;;;;;;25.02;76.38;95473.88;5135341;27;20419;-58
2022/07/16 06:35:14;;;;;;;0.40;0.40;;;;;;;25.03;81.18;95472.69;5135474;27;20423;-58
2022/07/16 06:37:42;;;;;;;0.70;0.50;;;;;;;25.22;79.70;95478.91;5135460;27;20496;-58
2022/07/16 06:40:12;;;;;;;0.77;0.77;;;;;;;25.83;76.46;95473.47;5135576;27;20458;-57
2022/07/16 06:42:41;;;;;;;0.40;0.33;;;;;;;25.55;76.84;95466.78;5135566;27;20457;-58
2022/07/16 06:45:11;;;;;;;0.63;0.50;;;;;;;25.82;78.29;95468.41;5135132;27;20851;-62
2022/07/16 06:47:40;;;;;;;0.40;0.40;;;;;;;25.60;72.75;95467.22;5136388;27;20442;-62
2022/07/16 06:50:10;;;;;;;0.60;0.60;;;;;;;25.50;76.40;95464.34;5147318;27;20487;-64
2022/07/16 06:52:39;;;;;;;0.70;0.60;;;;;;;26.32;70.99;95465.34;5135648;27;20893;-64
2022/07/16 06:55:08;;;;;;;0.40;0.33;;;;;;;26.21;70.36;95467.13;5135331;27;20426;-64
2022/07/16 06:57:37;;;;;;;0.50;0.40;;;;;;;26.39;69.39;95464.66;5134983;27;20523;-61
2022/07/16 07:00:06;;;;;;;0.80;0.50;;;;;;;27.09;64.55;95464.88;5133926;27;20483;-62
2022/07/16 07:02:35;;;;;;;1.03;1.03;;;;;;;26.45;65.61;95461.28;5134184;27;20497;-63
2022/07/16 07:05:04;;;;;;;0.80;0.40;;;;;;;26.57;73.34;95464.91;5134877;27;20952;-64
2022/07/16 07:07:34;;;;;;;0.53;0.53;;;;;;;26.42;75.11;95453.06;5134872;27;20423;-64
2022/07/16 07:10:03;;;;;;;0.60;0.60;;;;;;;27.00;71.06;95461.63;5134918;27;20517;-66
2022/07/16 07:12:31;;;;;;;1.43;0.40;;;;;;;27.11;68.63;95465.28;5135079;27;20411;-66
2022/07/16 07:15:00;;;;;;;0.50;0.40;;;;;;;27.60;66.30;95460.41;5134157;27;20501;-64
2022/07/16 07:17:28;;;;;;;1.03;0.60;;;;;;;27.61;62.81;95456.53;5134498;27;20569;-63
2022/07/16 07:19:57;;;;;;;1.63;0.50;;;;;;;28.03;58.90;95463.56;5134851;27;20422;-62
2022/07/16 07:22:25;;;;;;;3.50;0.40;;;;;;;28.29;58.08;95461.41;5134497;27;20932;-60
2022/07/16 07:24:55;;;;;;;0.40;0.30;;;;;;;28.77;59.41;95453.94;5134310;27;20465;-62
2022/07/16 07:27:23;;;;;;;2.30;0.40;;;;;;;28.87;55.58;95453.22;5134773;27;20419;-61
2022/07/16 07:29:52;;;;;;;0.40;0.30;;;;;;;29.53;51.51;95451.13;5134421;27;20423;-60
2022/07/16 07:32:20;;;;;;;0.40;0.40;;;;;;;28.60;53.10;95453.81;5134285;27;20481;-60
2022/07/16 07:34:49;;;;;;;0.40;0.30;;;;;;;28.18;55.29;95449.63;5134603;27;20517;-59
2022/07/16 07:37:17;;;;;;;1.00;0.60;;;;;;;28.31;57.78;95450.91;5134131;27;20918;-60
2022/07/16 07:39:49;;;;;;;0.73;0.40;;;;;;;29.05;52.53;95447.84;5134545;27;20503;-60
2022/07/16 07:42:18;;;;;;;0.40;0.30;;;;;;;29.44;53.16;95445.28;5133248;27;20526;-60
2022/07/16 07:44:47;;;;;;;2.60;0.30;;;;;;;29.35;51.23;95451.09;5133943;27;20462;-60
2022/07/16 07:47:15;;;;;;;0.80;0.50;;;;;;;29.44;48.78;95445.28;5134185;27;20813;-60
2022/07/16 07:49:44;;;;;;;0.90;0.40;;;;;;;30.07;48.13;95448.13;5134221;27;20506;-60
2022/07/16 07:52:13;;;;;;;0.40;0.30;;;;;;;30.04;49.82;95442.63;5134155;27;20533;-61
2022/07/16 07:54:41;;;;;;;0.50;0.50;;;;;;;29.94;46.45;95446.94;5133892;27;20518;-61
2022/07/16 07:57:10;;;;;;;0.50;0.47;;;;;;;30.32;46.28;95439.88;5134196;27;20549;-61
2022/07/16 07:59:40;;;;;;;0.30;0.30;;;;;;;30.06;46.72;95435.59;5134195;27;20431;-61
2022/07/16 08:02:08;;;;;;;1.00;0.70;;;;;;;29.50;47.57;95441.75;5134046;27;20418;-60
2022/07/16 08:04:37;;;;;;;0.50;0.30;;;;;;;29.88;47.20;95432.09;5133957;27;20430;-60
2022/07/16 08:07:05;;;;;;;0.50;0.50;;;;;;;30.71;50.46;95420.69;5134103;27;20827;-61
2022/07/16 08:09:34;;;;;;;0.50;0.50;;;;;;;30.47;47.47;95427.78;5133699;27;20491;-61
2022/07/16 08:12:03;;;;;;;0.40;0.30;;;;;;;30.23;46.87;95427.78;5133638;27;20458;-61
2022/07/16 08:14:32;;;;;;;0.50;0.40;;;;;;;30.36;47.12;95426.25;5132975;27;20462;-60
2022/07/16 08:17:02;;;;;;;0.40;0.30;;;;;;;30.88;45.01;95424.53;5133570;27;20561;-61
2022/07/16 08:19:32;;;;;;;0.50;0.40;;;;;;;31.41;44.56;95414.94;5133678;27;20433;-63
2022/07/16 08:22:01;;;;;;;0.47;0.40;;;;;;;31.70;43.71;95417.53;5133702;27;20476;-60
2022/07/16 08:27:16;;;;;;;0.43;0.40;;;;;;;31.54;45.43;95407.06;5133263;27;20985;-60
2022/07/16 08:29:45;;;;;;;0.50;0.30;;;;;;;32.21;41.21;95406.56;5133314;27;20470;-59
2022/07/16 08:32:15;;;;;;;0.37;0.30;;;;;;;32.29;39.19;95408.03;5133557;27;20490;-59
2022/07/16 08:34:43;;;;;;;0.40;0.30;;;;;;;32.42;40.11;95400.88;5133184;27;20436;-60
2022/07/16 08:37:13;;;;;;;0.50;0.40;;;;;;;32.73;41.91;95403.72;5133338;27;20464;-60
2022/07/16 08:39:42;;;;;;;0.40;0.30;;;;;;;32.32;39.69;95360.59;5133572;27;20481;-61
2022/07/16 08:42:12;;;;;;;0.50;0.37;;;;;;;32.21;41.09;95401.06;5133108;27;20431;-61
2022/07/16 08:44:41;;;;;;;0.47;0.43;;;;;;;32.48;41.81;95399.25;5133131;27;20782;-60
2022/07/16 08:47:10;;;;;;;0.67;0.60;;;;;;;32.90;43.10;95367.03;5133414;27;20520;-60
2022/07/16 08:49:43;;;;;;;0.60;0.47;;;;;;;32.93;40.88;95388.97;5133376;27;20787;-60
2022/07/16 08:52:13;;;;;;;0.47;0.43;;;;;;;32.56;42.05;95383.53;5133536;27;20545;-59
2022/07/16 08:54:43;;;;;;;1.00;0.77;;;;;;;32.66;40.80;95387.31;5132798;27;20487;-59
2022/07/16 08:57:19;;;;;;;1.00;0.90;;;;;;;33.35;41.73;95384.91;5132939;27;20982;-59
2022/07/16 08:59:47;;;;;;;0.40;0.40;;;;;;;33.63;39.59;95367.22;5132918;27;20521;-59
2022/07/16 09:02:16;;;;;;;0.70;0.50;;;;;;;34.09;39.23;95369.28;5133151;27;20483;-59
2022/07/16 09:04:47;;;;;;;0.40;0.30;;;;;;;33.69;39.34;95369.13;5132797;28;20469;-59
2022/07/16 09:07:16;;;;;;;0.40;0.40;;;;;;;33.38;40.11;95375.03;5133278;28;20457;-60
2022/07/16 09:09:45;;;;;;;0.53;0.50;;;;;;;34.36;39.54;95372.72;5133210;28;20434;-59
2022/07/16 09:12:34;;;;;;;0.60;0.60;;;;;;;34.28;40.85;95379.56;5133077;28;20429;-59
2022/07/16 09:15:24;;;;;;;0.40;0.40;;;;;;;34.35;40.53;95374.72;5132718;28;20489;-60
2022/07/16 09:18:08;;;;;;;0.53;0.47;;;;;;;33.88;39.38;95322.88;5132522;28;20511;-60
2022/07/16 09:20:39;;;;;;;0.63;0.37;;;;;;;34.36;38.55;95373.50;5132835;28;20961;-59
2022/07/16 09:23:18;;;;;;;0.63;0.63;;;;;;;34.32;38.08;95372.00;5132492;28;20479;-60
2022/07/16 09:25:49;;;;;;;0.50;0.40;;;;;;;35.32;38.32;95364.13;5132550;28;21016;-59
2022/07/16 09:28:17;;;;;;;0.50;0.40;;;;;;;34.92;36.45;95376.38;5132451;28;20443;-59
2022/07/16 09:30:47;;;;;;;0.50;0.50;;;;;;;34.59;37.02;95361.69;5132279;28;20552;-60
2022/07/16 09:33:18;;;;;;;0.63;0.57;;;;;;;34.40;37.34;95354.97;5132925;28;20433;-59
2022/07/16 09:35:49;;;;;;;0.40;0.40;;;;;;;34.70;35.86;95351.25;5132540;28;20473;-60
2022/07/16 09:38:17;;;;;;;0.40;0.30;;;;;;;35.72;35.37;95355.78;5132407;28;20227;-60
2022/07/16 09:40:47;;;;;;;0.43;0.43;;;;;;;35.80;35.73;95346.88;5132919;28;20503;-60
2022/07/16 09:43:22;;;;;;;0.60;0.60;;;;;;;34.98;35.54;95355.41;5132525;28;20282;-59
2022/07/16 09:45:57;;;;;;;0.50;0.50;;;;;;;35.74;34.83;95348.63;5132306;28;20244;-59
2022/07/16 09:48:28;;;;;;;0.50;0.40;;;;;;;36.17;33.88;95337.31;5132500;28;20192;-59
2022/07/16 09:50:59;;;;;;;1.47;0.67;;;;;;;36.15;35.40;95346.03;5132747;28;20600;-59
2022/07/16 09:53:28;;;;;;;0.33;0.30;;;;;;;36.34;34.65;95333.31;5132760;28;20437;-60
2022/07/16 09:56:02;;;;;;;0.37;0.30;;;;;;;36.77;34.13;95332.94;5132317;28;20184;-59
2022/07/16 09:58:31;;;;;;;0.40;0.40;;;;;;;36.91;33.66;95322.25;5132162;28;20250;-58
2022/07/16 10:01:01;;;;;;;0.40;0.30;;;;;;;36.30;32.66;95333.41;5132379;28;20291;-58
2022/07/16 10:03:34;;;;;;;0.53;0.40;;;;;;;36.40;31.35;95328.81;5132448;28;20654;-58
2022/07/16 10:06:04;;;;;;;0.50;0.40;;;;;;;36.98;32.39;95326.84;5134851;27;20210;-59
2022/07/16 10:08:32;;;;;;;0.30;0.30;;;;;;;37.39;31.58;95321.25;5135877;27;20196;-58
2022/07/16 10:11:01;;;;;;;0.80;0.30;;;;;;;37.60;32.54;95321.81;5135737;27;20253;-59
2022/07/16 10:13:30;;;;;;;0.40;0.40;;;;;;;36.54;34.29;95311.09;5135731;27;20220;-64
2022/07/16 10:15:59;;;;;;;0.77;0.77;;;;;;;36.68;33.75;95314.25;5135516;27;20260;-53
2022/07/16 10:18:38;;;;;;;0.40;0.40;;;;;;;37.12;31.17;95306.28;5135493;27;20295;-53
2022/07/16 10:21:10;;;;;;;0.40;0.30;;;;;;;37.77;30.24;95306.63;5135368;27;20195;-53
2022/07/16 10:23:40;;;;;;;0.70;0.30;;;;;;;38.08;30.12;95299.25;5135657;27;20264;-54
2022/07/16 10:26:11;;;;;;;0.30;0.25;;;;;;;37.97;32.03;95296.09;5135534;27;20634;-52
2022/07/16 10:28:44;;;;;;;0.40;0.30;;;;;;;38.05;31.12;95289.84;5135328;27;20639;-52
2022/07/16 10:31:38;;;;;;;0.40;0.30;;;;;;;36.39;32.82;95287.81;5135786;27;20184;-53
2022/07/16 10:34:38;;;;;;;0.30;0.30;;;;;;;36.89;32.54;95276.94;5135225;27;20271;-53
2022/07/16 10:37:13;;;;;;;0.32;0.30;;;;;;;36.65;32.18;95283.97;5133597;27;20196;-53
2022/07/16 10:40:12;;;;;;;0.75;0.43;;;;;;;37.09;29.94;95288.59;5135207;27;20215;-53
2022/07/16 10:42:41;;;;;;;0.40;0.40;;;;;;;37.48;29.81;95276.34;5100796;27;20224;-54
2022/07/16 10:45:09;;;;;;;0.38;0.30;;;;;;;37.12;27.94;95279.41;5134625;27;20275;-54
2022/07/16 10:47:49;;;;;;;0.38;0.30;;;;;;;38.04;28.19;95252.34;5135336;27;20192;-54
2022/07/16 10:50:21;;;;;;;0.47;0.47;;;;;;;37.78;28.95;95272.19;5135406;27;20617;-54
2022/07/16 10:52:52;;;;;;;0.30;0.30;;;;;;;37.88;27.30;95266.31;5135370;27;20192;-54
2022/07/16 10:55:36;;;;;;;0.40;0.32;;;;;;;38.13;25.61;95259.94;5135148;27;20276;-54
2022/07/16 10:58:05;;;;;;;0.40;0.38;;;;;;;37.99;26.25;95261.22;5134834;27;20184;-54
2022/07/16 11:00:34;;;;;;;0.40;0.40;;;;;;;37.71;25.84;95264.91;5134912;27;20223;-54
2022/07/16 11:03:04;;;;;;;0.30;0.30;;;;;;;38.37;26.64;95260.31;5134799;27;20275;-54
2022/07/16 11:05:46;;;;;;;0.30;0.30;;;;;;;38.08;27.06;95258.50;5135050;27;20192;-54
2022/07/16 11:08:16;;;;;;;0.35;0.30;;;;;;;38.44;28.97;95249.75;5134993;27;20275;-54
2022/07/16 11:10:44;;;;;;;0.30;0.30;;;;;;;38.90;30.33;95253.59;5134565;27;20192;-54
2022/07/16 11:13:15;;;;;;;0.38;0.30;;;;;;;38.29;28.02;95240.38;5134822;27;20220;-59
2022/07/16 11:15:44;;;;;;;0.30;0.30;;;;;;;38.03;28.27;95250.00;5134290;27;20231;-59
2022/07/16 11:18:19;;;;;;;0.50;0.30;;;;;;;38.10;27.42;95258.09;5134708;27;20220;-59
2022/07/16 11:20:48;;;;;;;0.30;0.30;;;;;;;37.15;26.50;95261.94;5134764;27;20260;-59
2022/07/16 11:23:19;;;;;;;0.35;0.35;;;;;;;38.19;26.96;95241.53;5134188;27;20645;-59
2022/07/16 11:25:59;;;;;;;0.40;0.40;;;;;;;37.92;27.00;95235.78;5134216;27;20220;-60
2022/07/16 11:28:28;;;;;;;0.70;0.70;;;;;;;38.38;25.82;95254.31;5134619;27;20184;-59
2022/07/16 11:31:04;;;;;;;0.30;0.30;;;;;;;37.47;26.50;95175.25;5134435;27;20253;-60
2022/07/16 11:33:50;;;;;;;0.30;0.30;;;;;;;37.82;25.96;95236.88;5134096;27;20188;-59
2022/07/16 11:36:19;;;;;;;0.43;0.40;;;;;;;37.45;25.78;95249.56;5134130;27;20185;-59
2022/07/16 11:38:49;;;;;;;0.40;0.40;;;;;;;37.84;26.23;95238.00;5134045;27;20216;-59
2022/07/16 11:41:18;;;;;;;0.40;0.40;;;;;;;37.77;27.24;95234.69;5134222;27;20189;-59
2022/07/16 11:43:47;;;;;;;0.30;0.30;;;;;;;38.82;25.01;95237.69;5134111;27;20662;-59
2022/07/16 11:46:24;;;;;;;0.50;0.40;;;;;;;38.25;22.98;95242.50;5133699;27;20185;-59
2022/07/16 11:48:53;;;;;;;0.30;0.20;;;;;;;38.44;23.71;95210.97;5134146;27;20195;-59